createdAt,value
2018-09-14T00:00:20.481Z,71.90
2018-09-14T00:02:48.288Z,72.10
2018-09-14T00:05:16.347Z,72.90
2018-09-14T00:07:44.077Z,73.30
2018-09-14T00:10:11.873Z,72.10
2018-09-14T00:12:40.753Z,71.20
2018-09-14T00:15:08.661Z,71.20
2018-09-14T00:17:36.603Z,71.10
2018-09-14T00:20:04.557Z,71.30
2018-09-14T00:22:32.312Z,71.60
2018-09-14T00:25:00.197Z,71.50
2018-09-14T00:27:27.934Z,71.80
2018-09-14T00:29:55.600Z,72.60
2018-09-14T00:32:23.425Z,73.60
2018-09-14T00:34:51.322Z,72.30
2018-09-14T00:37:19.129Z,71.80
2018-09-14T00:39:46.854Z,73.10
2018-09-14T00:42:14.590Z,74.10
2018-09-14T00:44:42.439Z,73.50
2018-09-14T00:47:10.187Z,72.70
2018-09-14T00:49:37.886Z,72.30
2018-09-14T00:52:05.693Z,72.40
2018-09-14T00:54:33.451Z,72.30
2018-09-14T00:57:01.297Z,73.10
2018-09-14T00:59:29.034Z,73.30
2018-09-14T01:01:56.805Z,73.60
2018-09-14T01:04:24.720Z,74.30
2018-09-14T01:06:52.526Z,73.10
2018-09-14T01:09:27.541Z,72.50
2018-09-14T01:11:56.886Z,72.60
2018-09-14T01:14:25.074Z,72.60
2018-09-14T01:16:53.278Z,72.80
2018-09-14T01:19:20.987Z,74.50
2018-09-14T01:21:48.690Z,74.00
2018-09-14T01:24:16.533Z,72.90
2018-09-14T01:26:44.258Z,72.60
2018-09-14T01:29:12.040Z,73.00
2018-09-14T01:31:39.736Z,73.80
2018-09-14T01:34:07.509Z,74.60
2018-09-14T01:36:35.344Z,74.70
2018-09-14T01:39:03.740Z,72.10
2018-09-14T01:41:31.499Z,71.70
2018-09-14T01:43:59.387Z,71.50
2018-09-14T01:46:27.158Z,71.50
2018-09-14T01:48:54.966Z,72.00
2018-09-14T01:51:22.756Z,72.20
2018-09-14T01:53:50.498Z,72.00
2018-09-14T01:56:18.285Z,72.20
2018-09-14T01:58:46.004Z,73.10
2018-09-14T02:01:13.816Z,73.70
2018-09-14T02:03:42.012Z,74.50
2018-09-14T02:06:09.734Z,74.50
2018-09-14T02:08:37.426Z,74.40
2018-09-14T02:11:05.328Z,74.60
2018-09-14T02:13:33.044Z,75.50
2018-09-14T02:16:00.834Z,75.20
2018-09-14T02:18:28.500Z,75.20
2018-09-14T02:20:56.178Z,75.50
2018-09-14T02:23:23.815Z,75.40
2018-09-14T02:25:51.518Z,74.00
2018-09-14T02:28:19.182Z,74.00
2018-09-14T02:30:47.047Z,74.10
2018-09-14T02:33:14.798Z,74.20
2018-09-14T02:35:42.611Z,74.60
2018-09-14T02:38:10.357Z,75.60
2018-09-14T02:40:38.058Z,76.40
2018-09-14T02:43:05.950Z,76.10
2018-09-14T02:45:33.668Z,76.40
2018-09-14T02:48:01.409Z,76.80
2018-09-14T02:50:29.142Z,77.00
2018-09-14T02:52:56.914Z,76.90
2018-09-14T02:55:24.630Z,76.10
2018-09-14T02:57:52.399Z,76.80
2018-09-14T03:00:20.171Z,77.20
2018-09-14T03:02:47.896Z,77.30
2018-09-14T03:05:15.586Z,78.00
2018-09-14T03:07:43.310Z,77.70
2018-09-14T03:10:11.047Z,77.20
2018-09-14T03:12:38.700Z,77.40
2018-09-14T03:15:06.409Z,78.10
2018-09-14T03:17:34.173Z,77.80
2018-09-14T03:20:01.920Z,77.50
2018-09-14T03:22:29.577Z,78.10
2018-09-14T03:24:57.331Z,78.70
2018-09-14T03:27:25.118Z,79.30
2018-09-14T03:29:52.879Z,79.00
2018-09-14T03:32:20.690Z,78.80
2018-09-14T03:34:48.291Z,79.10
2018-09-14T03:37:16.115Z,79.50
2018-09-14T03:39:43.973Z,79.10
2018-09-14T03:42:12.086Z,79.30
2018-09-14T03:44:39.992Z,80.00
2018-09-14T03:47:07.779Z,80.00
2018-09-14T03:49:35.441Z,79.80
2018-09-14T03:52:03.169Z,79.50
2018-09-14T03:54:31.150Z,79.80
2018-09-14T03:57:03.066Z,79.30
2018-09-14T03:59:31.669Z,80.10
2018-09-14T04:01:59.450Z,80.40
2018-09-14T04:04:27.245Z,80.60
2018-09-14T04:06:55.008Z,79.80
2018-09-14T04:09:22.697Z,80.00
2018-09-14T04:11:50.480Z,80.40
2018-09-14T04:14:18.188Z,80.40
2018-09-14T04:16:45.923Z,80.00
2018-09-14T04:19:13.638Z,80.00
2018-09-14T04:21:41.394Z,79.60
2018-09-14T04:24:09.105Z,79.60
2018-09-14T04:26:36.907Z,79.40
2018-09-14T04:29:04.610Z,79.70
2018-09-14T04:31:32.335Z,79.80
2018-09-14T04:34:00.080Z,79.50
2018-09-14T04:36:27.818Z,79.70
2018-09-14T04:38:55.509Z,79.90
2018-09-14T04:41:23.297Z,79.80
2018-09-14T04:43:51.003Z,79.80
2018-09-14T04:46:19.078Z,80.00
2018-09-14T04:48:46.935Z,80.00
2018-09-14T04:51:14.642Z,80.00
2018-09-14T04:53:42.555Z,80.30
2018-09-14T04:56:10.560Z,80.30
2018-09-14T04:58:38.391Z,80.40
2018-09-14T05:01:06.439Z,80.40
2018-09-14T05:03:34.323Z,80.60
2018-09-14T05:06:02.221Z,80.60
2018-09-14T05:08:30.026Z,80.70
2018-09-14T05:10:58.004Z,80.70
2018-09-14T05:13:25.820Z,80.60
2018-09-14T05:15:53.600Z,80.90
2018-09-14T05:18:21.435Z,81.20
2018-09-14T05:20:49.267Z,80.90
2018-09-14T05:23:17.005Z,80.70
2018-09-14T05:25:44.746Z,80.60
2018-09-14T05:28:12.547Z,80.70
2018-09-14T05:30:40.330Z,80.80
2018-09-14T05:33:08.129Z,80.90
2018-09-14T05:35:36.109Z,80.90
2018-09-14T05:38:03.871Z,80.90
2018-09-14T05:40:31.621Z,80.80
2018-09-14T05:42:59.439Z,80.90
2018-09-14T05:45:27.157Z,81.20
2018-09-14T05:47:54.917Z,81.30
2018-09-14T05:50:22.715Z,81.30
2018-09-14T05:52:50.519Z,80.90
2018-09-14T05:55:18.621Z,81.10
2018-09-14T05:57:46.372Z,81.20
2018-09-14T06:00:14.185Z,81.20
2018-09-14T06:02:41.896Z,81.30
2018-09-14T06:05:09.667Z,81.00
2018-09-14T06:07:37.377Z,80.80
2018-09-14T06:10:06.136Z,80.80
2018-09-14T06:12:33.951Z,80.90
2018-09-14T06:15:01.716Z,80.90
2018-09-14T06:17:29.454Z,80.70
2018-09-14T06:19:57.165Z,80.30
2018-09-14T06:22:24.834Z,80.00
2018-09-14T06:24:52.635Z,80.00
2018-09-14T06:27:20.426Z,80.00
2018-09-14T06:29:48.159Z,79.90
2018-09-14T06:32:16.014Z,80.40
2018-09-14T06:34:43.762Z,79.90
2018-09-14T06:37:11.524Z,79.90
2018-09-14T06:39:39.278Z,79.80
2018-09-14T06:42:07.092Z,79.60
2018-09-14T06:44:34.930Z,79.80
2018-09-14T06:47:02.607Z,79.30
2018-09-14T06:49:30.462Z,79.30
2018-09-14T06:51:58.301Z,79.40
2018-09-14T06:54:26.066Z,79.80
2018-09-14T06:56:53.813Z,79.70
2018-09-14T06:59:21.536Z,80.10
2018-09-14T07:01:49.207Z,80.10
2018-09-14T07:04:16.898Z,79.80
2018-09-14T07:06:44.648Z,80.20
2018-09-14T07:09:12.349Z,80.00
2018-09-14T07:11:40.128Z,79.70
2018-09-14T07:14:07.853Z,79.70
2018-09-14T07:16:35.611Z,79.70
2018-09-14T07:19:03.302Z,80.00
2018-09-14T07:21:31.031Z,79.50
2018-09-14T07:23:58.937Z,79.20
2018-09-14T07:26:27.344Z,79.10
2018-09-14T07:28:55.331Z,79.40
2018-09-14T07:31:23.057Z,79.80
2018-09-14T07:33:50.810Z,79.70
2018-09-14T07:36:18.547Z,79.20
2018-09-14T07:38:46.297Z,79.40
2018-09-14T07:41:14.055Z,79.50
2018-09-14T07:43:41.792Z,79.60
2018-09-14T07:46:09.518Z,79.40
2018-09-14T07:48:37.250Z,79.30
2018-09-14T07:51:05.088Z,79.60
2018-09-14T07:53:32.842Z,79.90
2018-09-14T07:56:00.632Z,79.30
2018-09-14T07:58:28.560Z,79.10
2018-09-14T08:00:56.329Z,78.60
2018-09-14T08:03:24.060Z,78.40
2018-09-14T08:05:51.997Z,77.60
2018-09-14T08:08:19.787Z,78.30
2018-09-14T08:10:47.494Z,78.20
2018-09-14T08:13:15.281Z,77.50
2018-09-14T08:15:43.115Z,77.40
2018-09-14T08:18:10.956Z,77.20
2018-09-14T08:20:38.823Z,77.40
2018-09-14T08:23:06.641Z,77.60
2018-09-14T08:25:34.379Z,77.60
2018-09-14T08:28:02.108Z,77.60
2018-09-14T08:30:29.912Z,77.50
2018-09-14T08:32:57.624Z,77.90
2018-09-14T08:35:25.368Z,78.10
2018-09-14T08:37:53.161Z,77.30
2018-09-14T08:40:20.939Z,77.60
2018-09-14T08:42:48.733Z,77.30
2018-09-14T08:45:16.487Z,76.70
2018-09-14T08:47:44.327Z,77.00
2018-09-14T08:50:12.162Z,77.50
2018-09-14T08:52:39.889Z,77.40
2018-09-14T08:55:07.652Z,77.90
2018-09-14T08:57:35.457Z,77.10
2018-09-14T09:00:03.287Z,77.50
2018-09-14T09:02:31.203Z,77.30
2018-09-14T09:04:58.962Z,76.50
2018-09-14T09:07:26.692Z,76.70
2018-09-14T09:09:54.483Z,76.90
2018-09-14T09:12:22.375Z,77.00
2018-09-14T09:14:50.243Z,77.30
2018-09-14T09:17:17.990Z,77.10
2018-09-14T09:19:45.743Z,76.90
2018-09-14T09:22:13.559Z,76.80
2018-09-14T09:24:41.366Z,76.10
2018-09-14T09:27:09.100Z,76.20
2018-09-14T09:29:36.843Z,75.50
2018-09-14T09:32:04.617Z,74.80
2018-09-14T09:34:32.502Z,74.60
2018-09-14T09:37:00.383Z,74.50
2018-09-14T09:39:28.195Z,74.90
2018-09-14T09:41:56.084Z,73.70
2018-09-14T09:44:24.074Z,73.20
2018-09-14T09:46:51.961Z,73.40
2018-09-14T09:49:19.852Z,73.70
2018-09-14T09:51:48.673Z,73.60
2018-09-14T09:54:16.430Z,73.40
2018-09-14T09:56:44.317Z,72.30
2018-09-14T09:59:12.106Z,73.20
2018-09-14T10:01:45.493Z,72.10
2018-09-14T10:04:19.052Z,73.70
2018-09-14T10:06:46.969Z,73.80
2018-09-14T10:09:14.673Z,70.50
2018-09-14T10:11:42.447Z,71.10
2018-09-14T10:14:10.332Z,70.90
2018-09-14T10:16:38.018Z,70.30
2018-09-14T10:19:05.869Z,69.10
2018-09-14T10:21:33.633Z,68.90
2018-09-14T10:24:01.393Z,69.30
2018-09-14T10:26:29.177Z,69.90
2018-09-14T10:28:57.004Z,70.10
2018-09-14T10:31:24.852Z,68.90
2018-09-14T10:33:52.595Z,68.80
2018-09-14T10:36:20.651Z,68.80
2018-09-14T10:38:48.464Z,69.30
2018-09-14T10:41:16.282Z,68.40
2018-09-14T10:43:44.332Z,69.20
2018-09-14T10:46:13.041Z,67.10
2018-09-14T10:48:40.816Z,67.20
2018-09-14T10:51:08.539Z,67.80
2018-09-14T10:53:36.317Z,66.60
2018-09-14T10:56:04.191Z,66.20
2018-09-14T10:58:47.949Z,66.10
2018-09-14T11:01:16.257Z,65.40
2018-09-14T11:03:44.358Z,65.40
2018-09-14T11:06:13.091Z,65.20
2018-09-14T11:08:40.798Z,64.40
2018-09-14T11:11:08.975Z,65.30
2018-09-14T11:13:37.033Z,65.40
2018-09-14T11:16:04.922Z,64.80
2018-09-14T11:18:32.722Z,64.70
2018-09-14T11:21:00.576Z,63.90
2018-09-14T11:23:28.358Z,64.10
2018-09-14T11:25:56.020Z,64.40
2018-09-14T11:28:25.300Z,65.40
2018-09-14T11:30:53.026Z,65.20
2018-09-14T11:33:20.798Z,64.40
2018-09-14T11:35:48.577Z,64.60
2018-09-14T11:38:16.438Z,63.90
2018-09-14T11:40:44.158Z,64.70
2018-09-14T11:43:11.995Z,64.00
2018-09-14T11:45:40.290Z,64.30
2018-09-14T11:48:08.278Z,64.00
2018-09-14T11:50:35.975Z,64.50
2018-09-14T11:53:03.778Z,65.50
2018-09-14T11:55:31.547Z,65.20
2018-09-14T11:57:59.366Z,65.20
2018-09-14T12:00:27.136Z,65.70
2018-09-14T12:02:54.912Z,65.50
2018-09-14T12:05:22.622Z,65.50
2018-09-14T12:07:50.311Z,65.80
2018-09-14T12:10:18.039Z,66.00
2018-09-14T12:12:45.732Z,66.00
2018-09-14T12:15:13.503Z,65.90
2018-09-14T12:17:41.252Z,65.90
2018-09-14T12:20:09.085Z,66.10
2018-09-14T12:22:36.820Z,66.20
2018-09-14T12:25:04.642Z,66.40
2018-09-14T12:27:32.382Z,66.30
2018-09-14T12:30:00.231Z,65.30
2018-09-14T12:32:28.002Z,64.50
2018-09-14T12:34:55.769Z,64.50
2018-09-14T12:37:23.541Z,63.60
2018-09-14T12:39:51.227Z,63.30
2018-09-14T12:42:18.962Z,61.30
2018-09-14T12:44:46.710Z,60.60
2018-09-14T12:47:14.413Z,60.20
2018-09-14T12:49:42.191Z,60.60
2018-09-14T12:52:10.139Z,60.60
2018-09-14T12:54:37.883Z,60.40
2018-09-14T12:57:05.591Z,60.10
2018-09-14T12:59:33.336Z,60.50
2018-09-14T13:02:01.141Z,59.30
2018-09-14T13:04:29.022Z,59.20
2018-09-14T13:06:56.803Z,59.30
2018-09-14T13:09:24.575Z,58.70
2018-09-14T13:11:52.302Z,59.70
2018-09-14T13:14:21.162Z,58.30
2018-09-14T13:16:49.413Z,58.20
2018-09-14T13:19:17.138Z,57.50
2018-09-14T13:21:44.875Z,57.70
2018-09-14T13:24:14.848Z,58.00
2018-09-14T13:26:42.583Z,58.20
2018-09-14T13:29:10.431Z,56.40
2018-09-14T13:31:38.136Z,56.50
2018-09-14T13:34:05.887Z,56.70
2018-09-14T13:36:33.705Z,57.50
2018-09-14T13:39:01.413Z,56.60
2018-09-14T13:41:29.487Z,55.60
2018-09-14T13:43:57.390Z,54.80
2018-09-14T13:46:25.165Z,54.10
2018-09-14T13:48:52.938Z,56.40
2018-09-14T13:51:20.616Z,56.00
2018-09-14T13:53:48.315Z,55.80
2018-09-14T13:56:16.061Z,53.80
2018-09-14T13:58:43.853Z,53.40
2018-09-14T14:01:11.644Z,55.20
2018-09-14T14:03:39.345Z,54.50
2018-09-14T14:06:07.173Z,54.50
2018-09-14T14:08:34.886Z,54.70
2018-09-14T14:11:02.632Z,55.10
2018-09-14T14:13:30.356Z,55.20
2018-09-14T14:15:58.089Z,54.20
2018-09-14T14:18:25.850Z,54.40
2018-09-14T14:20:53.632Z,54.00
2018-09-14T14:23:21.353Z,54.20
2018-09-14T14:25:49.126Z,53.60
2018-09-14T14:28:16.842Z,54.10
2018-09-14T14:30:44.552Z,52.60
2018-09-14T14:33:12.335Z,52.50
2018-09-14T14:35:40.186Z,52.00
2018-09-14T14:38:07.882Z,51.90
2018-09-14T14:40:35.597Z,52.20
2018-09-14T14:43:03.305Z,52.40
2018-09-14T14:45:31.020Z,52.30
2018-09-14T14:47:58.749Z,51.90
2018-09-14T14:50:26.465Z,53.10
2018-09-14T14:52:54.904Z,53.90
2018-09-14T14:55:22.685Z,52.90
2018-09-14T14:57:50.749Z,53.10
2018-09-14T15:00:18.483Z,52.40
2018-09-14T15:02:46.440Z,53.00
2018-09-14T15:05:14.333Z,53.20
2018-09-14T15:07:42.146Z,53.50
2018-09-14T15:10:09.865Z,53.90
2018-09-14T15:12:37.779Z,54.60
2018-09-14T15:15:06.045Z,55.50
2018-09-14T15:17:33.845Z,56.20
2018-09-14T15:20:01.793Z,56.70
2018-09-14T15:22:29.644Z,57.20
2018-09-14T15:24:57.429Z,57.40
2018-09-14T15:27:25.193Z,57.40
2018-09-14T15:29:52.972Z,57.30
2018-09-14T15:32:20.693Z,57.90
2018-09-14T15:34:48.423Z,58.20
2018-09-14T15:37:16.312Z,58.80
2018-09-14T15:39:44.023Z,58.50
2018-09-14T15:42:11.809Z,58.70
2018-09-14T15:44:39.544Z,58.80
2018-09-14T15:47:07.338Z,59.20
2018-09-14T15:49:35.216Z,59.00
2018-09-14T15:52:02.918Z,58.50
2018-09-14T15:54:30.683Z,58.60
2018-09-14T15:56:58.739Z,59.20
2018-09-14T15:59:26.429Z,59.30
2018-09-14T16:01:54.205Z,59.30
2018-09-14T16:04:21.929Z,59.50
2018-09-14T16:06:49.613Z,59.30
2018-09-14T16:09:17.366Z,59.30
2018-09-14T16:11:45.054Z,59.40
2018-09-14T16:14:12.765Z,59.50
2018-09-14T16:16:40.590Z,59.80
2018-09-14T16:19:08.264Z,60.10
2018-09-14T16:21:35.966Z,60.20
2018-09-14T16:24:03.890Z,60.20
2018-09-14T16:26:31.709Z,60.50
2018-09-14T16:28:59.525Z,60.70
2018-09-14T16:31:27.352Z,60.80
2018-09-14T16:33:55.106Z,60.70
2018-09-14T16:36:23.312Z,61.00
2018-09-14T16:38:51.019Z,61.10
2018-09-14T16:41:19.018Z,61.20
2018-09-14T16:43:46.780Z,60.70
2018-09-14T16:46:14.622Z,61.50
2018-09-14T16:48:42.386Z,61.70
2018-09-14T16:51:10.574Z,61.80
2018-09-14T16:53:38.481Z,61.60
2018-09-14T16:56:06.362Z,61.70
2018-09-14T16:58:34.224Z,61.80
2018-09-14T17:01:01.943Z,62.00
2018-09-14T17:03:30.139Z,62.00
2018-09-14T17:05:57.842Z,61.80
2018-09-14T17:08:25.875Z,61.90
2018-09-14T17:10:53.622Z,61.80
2018-09-14T17:13:21.428Z,61.90
2018-09-14T17:15:49.327Z,61.80
2018-09-14T17:18:17.128Z,62.10
2018-09-14T17:20:44.898Z,62.10
2018-09-14T17:23:12.656Z,62.10
2018-09-14T17:25:40.487Z,62.50
2018-09-14T17:28:08.217Z,62.40
2018-09-14T17:30:36.308Z,62.40
2018-09-14T17:33:04.064Z,62.30
2018-09-14T17:35:31.867Z,62.40
2018-09-14T17:38:00.070Z,62.60
2018-09-14T17:40:27.793Z,62.90
2018-09-14T17:42:55.549Z,63.30
2018-09-14T17:45:23.293Z,63.60
2018-09-14T17:47:51.012Z,63.90
2018-09-14T17:50:18.786Z,64.30
2018-09-14T17:52:46.485Z,65.20
2018-09-14T17:55:14.312Z,65.40
2018-09-14T17:57:42.008Z,66.10
2018-09-14T18:00:09.737Z,66.10
2018-09-14T18:02:37.463Z,66.20
2018-09-14T18:05:05.246Z,66.30
2018-09-14T18:07:32.942Z,65.90
2018-09-14T18:10:00.695Z,65.50
2018-09-14T18:12:28.412Z,65.20
2018-09-14T18:14:56.185Z,65.00
2018-09-14T18:17:23.925Z,64.70
2018-09-14T18:19:51.728Z,64.90
2018-09-14T18:22:19.472Z,64.70
2018-09-14T18:24:47.228Z,64.50
2018-09-14T18:27:14.951Z,64.50
2018-09-14T18:29:42.702Z,64.90
2018-09-14T18:32:10.501Z,65.00
2018-09-14T18:34:38.189Z,64.80
2018-09-14T18:37:06.094Z,64.60
2018-09-14T18:39:34.113Z,64.90
2018-09-14T18:42:01.902Z,65.20
2018-09-14T18:44:29.733Z,64.90
2018-09-14T18:46:57.485Z,64.90
2018-09-14T18:49:25.366Z,65.30
2018-09-14T18:51:53.136Z,65.80
2018-09-14T18:54:20.944Z,65.30
2018-09-14T18:56:48.726Z,65.30
2018-09-14T18:59:16.657Z,65.30
2018-09-14T19:01:44.381Z,65.30
2018-09-14T19:04:12.200Z,65.30
2018-09-14T19:06:39.942Z,65.30
2018-09-14T19:09:09.163Z,65.40
2018-09-14T19:11:37.126Z,67.00
2018-09-14T19:14:04.929Z,67.10
2018-09-14T19:16:32.934Z,68.00
2018-09-14T19:19:00.724Z,68.00
2018-09-14T19:21:29.334Z,68.50
2018-09-14T19:23:57.119Z,68.00
2018-09-14T19:26:24.908Z,68.40
2018-09-14T19:28:52.650Z,69.30
2018-09-14T19:31:20.426Z,68.30
2018-09-14T19:33:48.207Z,68.10
2018-09-14T19:36:15.977Z,68.20
2018-09-14T19:38:43.810Z,68.80
2018-09-14T19:41:11.877Z,68.00
2018-09-14T19:43:39.651Z,68.30
2018-09-14T19:46:07.439Z,68.40
2018-09-14T19:48:35.207Z,68.20
2018-09-14T19:51:02.932Z,68.40
2018-09-14T19:53:30.737Z,68.80
2018-09-14T19:55:58.521Z,69.00
2018-09-14T19:58:26.329Z,69.60
2018-09-14T20:00:54.124Z,69.30
2018-09-14T20:03:21.798Z,68.70
2018-09-14T20:05:49.545Z,69.20
2018-09-14T20:08:17.318Z,69.10
2018-09-14T20:10:45.103Z,69.40
2018-09-14T20:13:12.914Z,69.70
2018-09-14T20:15:40.638Z,69.60
2018-09-14T20:18:08.920Z,70.10
2018-09-14T20:20:36.705Z,69.80
2018-09-14T20:23:04.442Z,68.90
2018-09-14T20:25:32.170Z,68.80
2018-09-14T20:28:00.076Z,68.70
2018-09-14T20:30:28.071Z,68.90
2018-09-14T20:32:59.224Z,68.70
2018-09-14T20:35:27.368Z,68.00
2018-09-14T20:37:55.153Z,68.20
2018-09-14T20:40:22.915Z,69.00
2018-09-14T20:42:51.764Z,69.50
2018-09-14T20:45:19.641Z,69.60
2018-09-14T20:47:47.503Z,69.50
2018-09-14T20:50:16.676Z,69.10
2018-09-14T20:52:44.680Z,68.90
2018-09-14T20:55:13.014Z,68.20
2018-09-14T20:57:41.299Z,68.10
2018-09-14T21:00:09.705Z,69.00
2018-09-14T21:02:39.311Z,69.30
2018-09-14T21:05:07.542Z,69.90
2018-09-14T21:07:35.423Z,68.60
2018-09-14T21:10:03.250Z,68.60
2018-09-14T21:12:31.351Z,68.90
2018-09-14T21:15:00.102Z,68.80
2018-09-14T21:17:28.936Z,69.10
2018-09-14T21:19:56.815Z,69.80
2018-09-14T21:22:24.605Z,70.20
2018-09-14T21:24:52.558Z,70.50
2018-09-14T21:27:21.610Z,70.80
2018-09-14T21:29:49.364Z,71.20
2018-09-14T21:32:17.184Z,70.90
2018-09-14T21:34:45.042Z,70.50
2018-09-14T21:37:13.187Z,70.60
2018-09-14T21:39:41.049Z,70.50
2018-09-14T21:42:09.002Z,71.50
2018-09-14T21:44:37.147Z,71.90
2018-09-14T21:47:05.028Z,71.80
2018-09-14T21:49:35.747Z,71.40
2018-09-14T21:52:03.607Z,71.50
2018-09-14T21:54:35.914Z,71.50
2018-09-14T21:57:04.480Z,71.60
2018-09-14T21:59:32.325Z,71.70
2018-09-14T22:02:00.386Z,71.80
2018-09-14T22:04:28.289Z,72.70
2018-09-14T22:06:56.361Z,72.00
2018-09-14T22:09:25.641Z,71.60
2018-09-14T22:11:53.686Z,71.30
2018-09-14T22:14:21.997Z,72.00
2018-09-14T22:16:50.005Z,71.80
2018-09-14T22:19:17.868Z,71.70
2018-09-14T22:21:47.129Z,72.00
2018-09-14T22:24:15.106Z,72.20
2018-09-14T22:26:43.109Z,71.80
2018-09-14T22:29:11.051Z,71.70
2018-09-14T22:31:39.523Z,71.70
2018-09-14T22:34:07.315Z,71.90
2018-09-14T22:36:35.137Z,71.80
2018-09-14T22:39:03.495Z,71.50
2018-09-14T22:41:31.232Z,72.30
2018-09-14T22:43:58.993Z,71.80
2018-09-14T22:46:26.813Z,71.70
2018-09-14T22:48:54.536Z,71.70
2018-09-14T22:51:22.240Z,71.70
2018-09-14T22:53:50.079Z,71.80
2018-09-14T22:56:17.834Z,71.80
2018-09-14T22:58:45.571Z,71.80
2018-09-14T23:01:15.610Z,72.00
2018-09-14T23:03:43.759Z,72.40
2018-09-14T23:06:11.527Z,72.20
2018-09-14T23:08:39.268Z,72.30
2018-09-14T23:11:07.529Z,72.30
2018-09-14T23:13:35.441Z,72.20
2018-09-14T23:16:03.206Z,72.00
2018-09-14T23:18:31.604Z,71.90
2018-09-14T23:21:00.246Z,71.80
2018-09-14T23:23:28.159Z,71.80
2018-09-14T23:25:57.922Z,71.50
2018-09-14T23:28:25.618Z,71.10
2018-09-14T23:30:53.342Z,70.90
2018-09-14T23:33:21.139Z,70.20
2018-09-14T23:35:48.903Z,70.10
2018-09-14T23:38:16.673Z,70.20
2018-09-14T23:40:44.407Z,70.40
2018-09-14T23:43:12.119Z,70.60
2018-09-14T23:45:39.825Z,70.70
2018-09-14T23:48:07.602Z,71.10
2018-09-14T23:50:35.334Z,71.40
2018-09-14T23:53:03.037Z,71.40
2018-09-14T23:55:30.827Z,71.30
2018-09-14T23:57:58.602Z,71.90
